createdAt,value
2018-01-04T00:00:16.451Z,99.99
2018-01-04T00:01:16.426Z,99.99
2018-01-04T00:02:16.459Z,99.99
2018-01-04T00:03:16.379Z,99.99
2018-01-04T00:04:16.356Z,99.99
2018-01-04T00:05:16.336Z,99.99
2018-01-04T00:06:16.328Z,99.99
2018-01-04T00:07:16.293Z,99.99
2018-01-04T00:08:16.277Z,99.99
2018-01-04T00:09:16.247Z,99.99
2018-01-04T00:10:16.230Z,99.99
2018-01-04T00:11:16.220Z,99.99
2018-01-04T00:12:16.194Z,99.99
2018-01-04T00:13:16.285Z,99.99
2018-01-04T00:14:16.140Z,99.99
2018-01-04T00:15:16.116Z,99.99
2018-01-04T00:16:16.099Z,99.99
2018-01-04T00:17:16.072Z,99.99
2018-01-04T00:18:16.052Z,99.99
2018-01-04T00:19:16.040Z,99.99
2018-01-04T00:20:16.007Z,99.99
2018-01-04T00:21:15.988Z,99.99
2018-01-04T00:22:15.971Z,99.99
2018-01-04T00:23:15.942Z,99.99
2018-01-04T00:24:15.921Z,99.99
2018-01-04T00:25:15.896Z,99.99
2018-01-04T00:26:15.874Z,99.99
2018-01-04T00:27:15.851Z,99.99
2018-01-04T00:28:15.830Z,99.99
2018-01-04T00:29:15.810Z,99.99
2018-01-04T00:30:15.785Z,99.99
2018-01-04T00:31:15.767Z,99.99
2018-01-04T00:32:15.743Z,99.99
2018-01-04T00:33:15.730Z,99.99
2018-01-04T00:34:15.705Z,99.99
2018-01-04T00:35:15.680Z,99.99
2018-01-04T00:36:15.658Z,99.99
2018-01-04T00:37:15.634Z,99.99
2018-01-04T00:38:15.611Z,99.99
2018-01-04T00:39:15.597Z,99.99
2018-01-04T00:40:15.577Z,99.99
2018-01-04T00:41:15.544Z,99.99
2018-01-04T00:42:15.523Z,99.99
2018-01-04T00:43:15.526Z,99.99
2018-01-04T00:44:15.481Z,99.99
2018-01-04T00:45:15.460Z,99.99
2018-01-04T00:46:15.544Z,99.99
2018-01-04T00:47:15.421Z,99.99
2018-01-04T00:48:15.393Z,99.99
2018-01-04T00:49:15.374Z,99.99
2018-01-04T00:50:15.355Z,99.99
2018-01-04T00:51:15.326Z,99.99
2018-01-04T00:52:15.308Z,99.99
2018-01-04T00:53:15.282Z,99.99
2018-01-04T00:54:15.271Z,99.99
2018-01-04T00:55:15.251Z,99.99
2018-01-04T00:56:15.217Z,99.99
2018-01-04T00:57:15.194Z,99.99
2018-01-04T00:58:15.176Z,99.99
2018-01-04T00:59:15.182Z,99.99
2018-01-04T01:00:15.129Z,99.99
2018-01-04T01:01:15.111Z,99.99
2018-01-04T01:02:15.087Z,99.99
2018-01-04T01:03:15.063Z,99.99
2018-01-04T01:04:15.051Z,99.99
2018-01-04T01:05:15.021Z,99.99
2018-01-04T01:06:14.999Z,99.99
2018-01-04T01:07:14.983Z,99.99
2018-01-04T01:08:14.963Z,99.99
2018-01-04T01:09:14.936Z,99.99
2018-01-04T01:10:14.910Z,99.99
2018-01-04T01:11:14.889Z,99.99
2018-01-04T01:12:14.874Z,99.99
2018-01-04T01:13:14.843Z,99.99
2018-01-04T01:14:14.826Z,99.99
2018-01-04T01:15:14.804Z,99.99
2018-01-04T01:16:14.780Z,99.99
2018-01-04T01:17:14.757Z,99.99
2018-01-04T01:18:14.738Z,99.99
2018-01-04T01:19:14.715Z,99.99
2018-01-04T01:20:14.695Z,99.99
2018-01-04T01:21:14.677Z,99.99
2018-01-04T01:22:14.652Z,99.99
2018-01-04T01:23:14.626Z,99.99
2018-01-04T01:24:14.603Z,99.99
2018-01-04T01:25:14.585Z,99.99
2018-01-04T01:26:14.572Z,99.99
2018-01-04T01:27:14.538Z,99.99
2018-01-04T01:28:14.518Z,99.99
2018-01-04T01:29:14.496Z,99.99
2018-01-04T01:30:14.475Z,99.99
2018-01-04T01:31:14.452Z,99.99
2018-01-04T01:32:14.434Z,99.99
2018-01-04T01:33:14.412Z,99.99
2018-01-04T01:34:14.383Z,99.99
2018-01-04T01:35:14.423Z,99.99
2018-01-04T01:36:14.342Z,99.99
2018-01-04T01:37:14.321Z,99.99
2018-01-04T01:38:14.314Z,99.99
2018-01-04T01:39:14.277Z,99.99
2018-01-04T01:40:14.253Z,99.99
2018-01-04T01:41:14.236Z,99.99
2018-01-04T01:42:14.215Z,99.99
2018-01-04T01:43:14.191Z,99.99
2018-01-04T01:44:14.185Z,99.99
2018-01-04T01:45:14.147Z,99.99
2018-01-04T01:46:14.122Z,99.99
2018-01-04T01:47:14.099Z,99.99
2018-01-04T01:48:14.085Z,99.99
2018-01-04T01:49:14.061Z,99.99
2018-01-04T01:50:14.049Z,99.99
2018-01-04T01:51:14.018Z,99.99
2018-01-04T01:52:13.992Z,99.99
2018-01-04T01:53:13.970Z,99.99
2018-01-04T01:54:13.948Z,99.97
2018-01-04T01:55:13.929Z,99.97
2018-01-04T01:56:13.909Z,99.40
2018-01-04T01:57:13.884Z,99.69
2018-01-04T01:58:13.875Z,99.88
2018-01-04T01:59:13.840Z,99.50
2018-01-04T02:00:13.921Z,99.88
2018-01-04T02:01:13.808Z,99.88
2018-01-04T02:02:13.782Z,99.88
2018-01-04T02:03:13.773Z,99.97
2018-01-04T02:04:13.732Z,99.69
2018-01-04T02:05:13.709Z,99.40
2018-01-04T02:06:13.687Z,99.99
2018-01-04T02:07:13.669Z,99.59
2018-01-04T02:08:13.656Z,99.69
2018-01-04T02:09:13.622Z,99.99
2018-01-04T02:10:13.602Z,99.97
2018-01-04T02:11:13.580Z,99.78
2018-01-04T02:12:13.557Z,99.21
2018-01-04T02:13:13.537Z,99.59
2018-01-04T02:14:13.517Z,99.11
2018-01-04T02:15:13.492Z,99.88
2018-01-04T02:16:13.468Z,99.97
2018-01-04T02:17:13.447Z,99.97
2018-01-04T02:18:13.426Z,99.97
2018-01-04T02:19:13.404Z,99.50
2018-01-04T02:20:13.384Z,99.50
2018-01-04T02:21:13.368Z,99.54
2018-01-04T02:22:13.340Z,99.88
2018-01-04T02:23:13.317Z,99.99
2018-01-04T02:24:13.295Z,99.50
2018-01-04T02:25:13.276Z,99.69
2018-01-04T02:26:13.255Z,99.69
2018-01-04T02:27:13.230Z,99.59
2018-01-04T02:28:13.208Z,99.50
2018-01-04T02:29:13.188Z,99.99
2018-01-04T02:30:13.305Z,99.88
2018-01-04T02:31:13.144Z,99.99
2018-01-04T02:32:13.124Z,99.50
2018-01-04T02:33:13.152Z,99.50
2018-01-04T02:34:13.078Z,99.40
2018-01-04T02:35:13.056Z,99.21
2018-01-04T02:36:13.056Z,99.88
2018-01-04T02:37:13.013Z,99.30
2018-01-04T02:38:12.994Z,99.88
2018-01-04T02:39:12.973Z,99.30
2018-01-04T02:40:12.948Z,99.97
2018-01-04T02:41:12.925Z,99.97
2018-01-04T02:42:12.907Z,99.50
2018-01-04T02:43:12.882Z,99.59
2018-01-04T02:44:12.862Z,99.30
2018-01-04T02:45:12.841Z,99.97
2018-01-04T02:46:12.817Z,99.40
2018-01-04T02:47:12.805Z,99.92
2018-01-04T02:48:12.782Z,99.88
2018-01-04T02:49:12.754Z,99.78
2018-01-04T02:50:12.731Z,99.30
2018-01-04T02:51:12.712Z,99.92
2018-01-04T02:52:12.692Z,99.99
2018-01-04T02:53:12.671Z,99.73
2018-01-04T02:54:12.642Z,99.92
2018-01-04T02:55:12.724Z,99.59
2018-01-04T02:56:12.601Z,99.83
2018-01-04T02:57:12.592Z,99.99
2018-01-04T02:58:12.562Z,99.99
2018-01-04T02:59:12.542Z,99.99
2018-01-04T03:00:12.512Z,99.99
2018-01-04T03:01:12.539Z,99.99
2018-01-04T03:02:12.469Z,99.99
2018-01-04T03:03:12.450Z,99.99
2018-01-04T03:04:12.436Z,99.99
2018-01-04T03:05:12.404Z,99.99
2018-01-04T03:06:12.430Z,99.99
2018-01-04T03:07:12.363Z,99.99
2018-01-04T03:08:12.340Z,99.99
2018-01-04T03:09:12.318Z,99.99
2018-01-04T03:10:12.298Z,99.99
2018-01-04T03:11:12.276Z,99.99
2018-01-04T03:12:12.253Z,99.99
2018-01-04T03:13:12.237Z,99.99
2018-01-04T03:14:12.211Z,99.99
2018-01-04T03:15:12.187Z,99.99
2018-01-04T03:16:12.168Z,99.99
2018-01-04T03:17:12.151Z,99.99
2018-01-04T03:18:12.123Z,99.99
2018-01-04T03:19:12.099Z,99.99
2018-01-04T03:20:12.131Z,99.99
2018-01-04T03:21:12.058Z,99.99
2018-01-04T03:22:12.037Z,99.99
2018-01-04T03:23:12.021Z,99.99
2018-01-04T03:24:11.999Z,99.83
2018-01-04T03:25:12.021Z,99.99
2018-01-04T03:26:11.949Z,99.99
2018-01-04T03:27:11.945Z,99.99
2018-01-04T03:28:12.006Z,99.99
2018-01-04T03:29:11.885Z,99.99
2018-01-04T03:30:11.876Z,99.99
2018-01-04T03:31:11.841Z,99.99
2018-01-04T03:32:11.824Z,99.99
2018-01-04T03:33:11.802Z,99.99
2018-01-04T03:34:11.782Z,99.99
2018-01-04T03:35:11.755Z,99.99
2018-01-04T03:36:11.729Z,99.99
2018-01-04T03:37:11.708Z,99.99
2018-01-04T03:38:11.686Z,99.99
2018-01-04T03:39:11.664Z,99.99
2018-01-04T03:40:11.644Z,99.64
2018-01-04T03:41:11.624Z,99.83
2018-01-04T03:42:11.612Z,99.16
2018-01-04T03:43:11.578Z,99.59
2018-01-04T03:44:11.556Z,99.64
2018-01-04T03:45:11.535Z,99.59
2018-01-04T03:46:11.515Z,99.16
2018-01-04T03:47:11.581Z,99.44
2018-01-04T03:48:11.479Z,99.78
2018-01-04T03:49:11.447Z,99.88
2018-01-04T03:50:11.438Z,99.44
2018-01-04T03:51:11.405Z,99.73
2018-01-04T03:52:11.384Z,99.92
2018-01-04T03:53:11.370Z,99.99
2018-01-04T03:54:11.342Z,99.99
2018-01-04T03:55:11.321Z,99.69
2018-01-04T03:56:11.297Z,99.35
2018-01-04T03:57:11.275Z,99.99
2018-01-04T03:58:11.318Z,99.35
2018-01-04T03:59:11.232Z,99.44
2018-01-04T04:00:11.213Z,99.99
2018-01-04T04:01:11.215Z,99.99
2018-01-04T04:02:11.173Z,99.99
2018-01-04T04:03:11.149Z,99.99
2018-01-04T04:04:11.124Z,99.73
2018-01-04T04:05:11.101Z,99.73
2018-01-04T04:06:11.082Z,99.99
2018-01-04T04:07:11.069Z,99.99
2018-01-04T04:08:11.043Z,99.99
2018-01-04T04:09:11.013Z,99.99
2018-01-04T04:10:10.993Z,99.54
2018-01-04T04:11:10.976Z,99.26
2018-01-04T04:12:10.960Z,99.92
2018-01-04T04:13:10.929Z,99.54
2018-01-04T04:14:10.909Z,99.16
2018-01-04T04:15:10.885Z,99.54
2018-01-04T04:16:10.865Z,99.16
2018-01-04T04:17:10.844Z,99.07
2018-01-04T04:18:10.821Z,99.44
2018-01-04T04:19:10.811Z,98.40
2018-01-04T04:20:10.866Z,98.88
2018-01-04T04:21:10.764Z,98.97
2018-01-04T04:22:10.733Z,98.69
2018-01-04T04:23:10.779Z,98.83
2018-01-04T04:24:10.690Z,98.97
2018-01-04T04:25:10.668Z,98.64
2018-01-04T04:26:10.698Z,98.12
2018-01-04T04:27:10.622Z,98.40
2018-01-04T04:28:10.603Z,98.50
2018-01-04T04:29:10.580Z,98.40
2018-01-04T04:30:10.584Z,98.07
2018-01-04T04:31:10.537Z,98.07
2018-01-04T04:32:10.518Z,97.69
2018-01-04T04:33:10.515Z,97.78
2018-01-04T04:34:10.472Z,97.60
2018-01-04T04:35:10.449Z,97.88
2018-01-04T04:36:10.428Z,97.22
2018-01-04T04:37:10.414Z,97.60
2018-01-04T04:38:10.385Z,97.03
2018-01-04T04:39:10.365Z,96.84
2018-01-04T04:40:10.348Z,96.84
2018-01-04T04:41:10.321Z,96.65
2018-01-04T04:42:10.300Z,97.03
2018-01-04T04:43:10.278Z,96.55
2018-01-04T04:44:10.265Z,97.12
2018-01-04T04:45:10.236Z,97.12
2018-01-04T04:46:10.214Z,96.45
2018-01-04T04:47:10.191Z,97.22
2018-01-04T04:48:10.169Z,96.65
2018-01-04T04:49:10.150Z,96.65
2018-01-04T04:50:10.128Z,96.93
2018-01-04T04:51:10.107Z,97.03
2018-01-04T04:52:10.083Z,97.03
2018-01-04T04:53:10.215Z,97.22
2018-01-04T04:54:10.039Z,96.93
2018-01-04T04:55:10.020Z,97.03
2018-01-04T04:56:09.996Z,97.69
2018-01-04T04:57:09.977Z,97.31
2018-01-04T04:58:09.962Z,97.41
2018-01-04T04:59:09.937Z,96.93
2018-01-04T05:00:09.912Z,97.41
2018-01-04T05:01:09.888Z,97.12
2018-01-04T05:02:09.867Z,97.31
2018-01-04T05:03:09.846Z,98.17
2018-01-04T05:04:09.824Z,97.03
2018-01-04T05:05:09.803Z,97.41
2018-01-04T05:06:09.783Z,97.88
2018-01-04T05:07:09.762Z,97.50
2018-01-04T05:08:09.738Z,97.17
2018-01-04T05:09:09.721Z,97.41
2018-01-04T05:10:09.696Z,97.78
2018-01-04T05:11:09.688Z,97.88
2018-01-04T05:12:09.850Z,97.41
2018-01-04T05:13:09.630Z,97.78
2018-01-04T05:14:09.629Z,97.50
2018-01-04T05:15:09.685Z,97.97
2018-01-04T05:16:09.567Z,97.64
2018-01-04T05:17:09.546Z,97.88
2018-01-04T05:18:09.582Z,97.60
2018-01-04T05:19:09.501Z,97.97
2018-01-04T05:20:09.481Z,97.50
2018-01-04T05:21:09.470Z,96.84
2018-01-04T05:22:09.440Z,97.60
2018-01-04T05:23:09.416Z,97.03
2018-01-04T05:24:09.403Z,97.03
2018-01-04T05:25:09.374Z,97.22
2018-01-04T05:26:09.351Z,97.69
2018-01-04T05:27:09.332Z,97.41
2018-01-04T05:28:09.310Z,97.12
2018-01-04T05:29:09.291Z,97.03
2018-01-04T05:30:09.282Z,97.03
2018-01-04T05:31:09.243Z,97.22
2018-01-04T05:32:09.226Z,98.07
2018-01-04T05:33:09.205Z,97.78
2018-01-04T05:34:09.182Z,97.69
2018-01-04T05:35:09.158Z,96.84
2018-01-04T05:36:09.143Z,96.65
2018-01-04T05:37:09.117Z,97.22
2018-01-04T05:38:09.098Z,96.93
2018-01-04T05:39:09.079Z,97.50
2018-01-04T05:40:09.052Z,97.07
2018-01-04T05:41:09.030Z,96.93
2018-01-04T05:42:09.021Z,96.98
2018-01-04T05:43:08.999Z,96.45
2018-01-04T05:44:08.969Z,97.31
2018-01-04T05:45:09.075Z,96.84
2018-01-04T05:46:08.928Z,96.93
2018-01-04T05:47:08.907Z,97.22
2018-01-04T05:48:08.944Z,97.12
2018-01-04T05:49:08.862Z,97.60
2018-01-04T05:50:08.840Z,97.60
2018-01-04T05:51:08.831Z,97.60
2018-01-04T05:52:08.796Z,97.41
2018-01-04T05:53:08.777Z,96.93
2018-01-04T05:54:08.757Z,97.12
2018-01-04T05:55:08.744Z,97.41
2018-01-04T05:56:08.712Z,97.88
2018-01-04T05:57:08.701Z,97.97
2018-01-04T05:58:08.669Z,97.88
2018-01-04T05:59:08.648Z,97.69
2018-01-04T06:00:08.625Z,98.17
2018-01-04T06:01:08.606Z,97.83
2018-01-04T06:02:08.592Z,98.31
2018-01-04T06:03:08.565Z,98.17
2018-01-04T06:04:08.548Z,97.92
2018-01-04T06:05:08.517Z,98.02
2018-01-04T06:06:08.498Z,97.92
2018-01-04T06:07:08.479Z,98.02
2018-01-04T06:08:08.455Z,97.78
2018-01-04T06:09:08.434Z,97.64
2018-01-04T06:10:08.526Z,98.02
2018-01-04T06:11:08.394Z,98.12
2018-01-04T06:12:08.371Z,98.12
2018-01-04T06:13:08.357Z,98.59
2018-01-04T06:14:08.326Z,98.21
2018-01-04T06:15:08.303Z,98.79
2018-01-04T06:16:08.293Z,97.92
2018-01-04T06:17:08.261Z,98.79
2018-01-04T06:18:08.238Z,98.31
2018-01-04T06:19:08.236Z,98.59
2018-01-04T06:20:08.203Z,97.92
2018-01-04T06:21:08.203Z,98.31
2018-01-04T06:22:08.157Z,98.21
2018-01-04T06:23:08.134Z,98.21
2018-01-04T06:24:08.112Z,98.45
2018-01-04T06:25:08.091Z,98.31
2018-01-04T06:26:08.067Z,98.21
2018-01-04T06:27:08.047Z,98.40
2018-01-04T06:28:08.032Z,97.74
2018-01-04T06:29:08.004Z,98.12
2018-01-04T06:30:07.984Z,97.92
2018-01-04T06:31:07.961Z,98.07
2018-01-04T06:32:07.939Z,98.36
2018-01-04T06:33:07.922Z,99.02
2018-01-04T06:34:07.896Z,98.74
2018-01-04T06:35:07.876Z,99.07
2018-01-04T06:36:07.854Z,99.83
2018-01-04T06:37:07.832Z,99.44
2018-01-04T06:38:07.811Z,99.50
2018-01-04T06:39:07.790Z,99.92
2018-01-04T06:40:07.874Z,99.35
2018-01-04T06:41:07.751Z,99.99
2018-01-04T06:42:07.731Z,99.99
2018-01-04T06:43:07.742Z,99.99
2018-01-04T06:44:07.682Z,99.99
2018-01-04T06:45:07.672Z,99.99
2018-01-04T06:46:07.649Z,99.99
2018-01-04T06:47:07.619Z,99.99
2018-01-04T06:48:07.598Z,99.99
2018-01-04T06:49:07.577Z,99.99
2018-01-04T06:50:07.560Z,99.99
2018-01-04T06:51:07.531Z,99.99
2018-01-04T06:52:07.511Z,99.99
2018-01-04T06:53:07.492Z,99.99
2018-01-04T06:54:07.469Z,99.99
2018-01-04T06:55:07.448Z,99.99
2018-01-04T06:56:07.433Z,99.99
2018-01-04T06:57:07.407Z,99.99
2018-01-04T06:58:07.384Z,99.99
2018-01-04T06:59:07.367Z,99.99
2018-01-04T07:00:07.340Z,99.99
2018-01-04T07:01:07.331Z,99.99
2018-01-04T07:02:07.398Z,99.99
2018-01-04T07:03:07.278Z,99.99
2018-01-04T07:04:07.258Z,99.99
2018-01-04T07:05:07.254Z,99.99
2018-01-04T07:06:07.211Z,99.99
2018-01-04T07:07:07.189Z,99.99
2018-01-04T07:08:07.177Z,99.99
2018-01-04T07:09:07.150Z,99.99
2018-01-04T07:10:07.312Z,99.99
2018-01-04T07:11:07.105Z,99.99
2018-01-04T07:12:07.086Z,99.99
2018-01-04T07:13:07.078Z,99.99
2018-01-04T07:14:07.046Z,99.99
2018-01-04T07:15:07.029Z,99.99
2018-01-04T07:16:07.011Z,99.99
2018-01-04T07:17:06.977Z,99.99
2018-01-04T07:18:06.958Z,99.99
2018-01-04T07:19:06.941Z,99.99
2018-01-04T07:20:06.914Z,99.99
2018-01-04T07:21:06.895Z,99.99
2018-01-04T07:22:06.871Z,99.99
2018-01-04T07:23:06.848Z,99.99
2018-01-04T07:24:06.834Z,99.99
2018-01-04T07:25:06.807Z,99.99
2018-01-04T07:26:06.794Z,99.99
2018-01-04T07:27:06.764Z,99.99
2018-01-04T07:28:06.745Z,99.99
2018-01-04T07:29:06.723Z,99.99
2018-01-04T07:30:06.702Z,99.99
2018-01-04T07:31:06.680Z,99.99
2018-01-04T07:32:06.657Z,99.99
2018-01-04T07:33:06.634Z,99.99
2018-01-04T07:34:06.620Z,99.99
2018-01-04T07:35:06.705Z,99.99
2018-01-04T07:36:06.581Z,99.99
2018-01-04T07:37:06.553Z,99.99
2018-01-04T07:38:06.537Z,99.99
2018-01-04T07:39:06.512Z,99.69
2018-01-04T07:40:06.500Z,99.99
2018-01-04T07:41:06.469Z,99.99
2018-01-04T07:42:06.445Z,99.88
2018-01-04T07:43:06.425Z,99.88
2018-01-04T07:44:06.410Z,99.88
2018-01-04T07:45:06.389Z,99.88
2018-01-04T07:46:06.363Z,99.50
2018-01-04T07:47:06.347Z,99.50
2018-01-04T07:48:06.318Z,99.78
2018-01-04T07:49:06.296Z,99.88
2018-01-04T07:50:06.278Z,99.40
2018-01-04T07:51:06.252Z,99.69
2018-01-04T07:52:06.240Z,99.69
2018-01-04T07:53:06.210Z,99.59
2018-01-04T07:54:06.189Z,99.50
2018-01-04T07:55:06.172Z,99.78
2018-01-04T07:56:06.166Z,99.30
2018-01-04T07:57:06.129Z,99.02
2018-01-04T07:58:06.104Z,99.50
2018-01-04T07:59:06.089Z,99.21
2018-01-04T08:00:06.061Z,99.69
2018-01-04T08:01:06.041Z,99.21
2018-01-04T08:02:06.022Z,99.69
2018-01-04T08:03:05.999Z,99.30
2018-01-04T08:04:05.979Z,99.30
2018-01-04T08:05:05.989Z,99.59
2018-01-04T08:06:05.949Z,99.30
2018-01-04T08:07:05.914Z,99.02
2018-01-04T08:08:05.971Z,99.30
2018-01-04T08:09:05.884Z,99.21
2018-01-04T08:10:05.853Z,99.50
2018-01-04T08:11:05.840Z,99.30
2018-01-04T08:12:05.816Z,99.02
2018-01-04T08:13:05.787Z,99.69
2018-01-04T08:14:05.767Z,99.69
2018-01-04T08:15:05.752Z,99.88
2018-01-04T08:16:05.733Z,99.21
2018-01-04T08:17:05.702Z,99.97
2018-01-04T08:18:05.687Z,98.83
2018-01-04T08:19:05.673Z,99.11
2018-01-04T08:20:05.646Z,99.02
2018-01-04T08:21:05.624Z,98.74
2018-01-04T08:22:05.599Z,98.83
2018-01-04T08:23:05.578Z,98.64
2018-01-04T08:24:05.556Z,99.50
2018-01-04T08:25:05.536Z,98.64
2018-01-04T08:26:05.516Z,98.55
2018-01-04T08:27:05.529Z,98.74
2018-01-04T08:28:05.480Z,98.74
2018-01-04T08:29:05.456Z,97.97
2018-01-04T08:30:05.477Z,98.26
2018-01-04T08:31:05.408Z,99.02
2018-01-04T08:32:05.393Z,98.74
2018-01-04T08:33:05.376Z,98.36
2018-01-04T08:34:05.351Z,97.78
2018-01-04T08:35:05.328Z,98.07
2018-01-04T08:36:05.306Z,98.64
2018-01-04T08:37:05.301Z,97.97
2018-01-04T08:38:05.264Z,97.88
2018-01-04T08:39:05.245Z,97.41
2018-01-04T08:40:05.225Z,97.60
2018-01-04T08:41:05.215Z,97.50
2018-01-04T08:42:05.182Z,98.45
2018-01-04T08:43:05.163Z,98.45
2018-01-04T08:44:05.142Z,98.26
2018-01-04T08:45:05.116Z,97.97
2018-01-04T08:46:05.094Z,98.45
2018-01-04T08:47:05.076Z,98.07
2018-01-04T08:48:05.053Z,98.17
2018-01-04T08:49:05.034Z,98.07
2018-01-04T08:50:05.024Z,98.64
2018-01-04T08:51:04.993Z,98.26
2018-01-04T08:52:04.972Z,98.64
2018-01-04T08:53:04.953Z,98.83
2018-01-04T08:54:04.936Z,98.83
2018-01-04T08:55:04.913Z,97.97
2018-01-04T08:56:04.886Z,98.26
2018-01-04T08:57:05.229Z,98.55
2018-01-04T08:58:04.856Z,98.55
2018-01-04T08:59:04.827Z,97.60
2018-01-04T09:00:04.824Z,97.60
2018-01-04T09:01:04.784Z,98.07
2018-01-04T09:02:04.766Z,97.78
2018-01-04T09:03:04.744Z,97.78
2018-01-04T09:04:04.729Z,98.07
2018-01-04T09:05:04.709Z,98.50
2018-01-04T09:06:04.699Z,98.07
2018-01-04T09:07:04.666Z,98.03
2018-01-04T09:08:04.643Z,97.60
2018-01-04T09:09:04.620Z,97.64
2018-01-04T09:10:04.607Z,97.74
2018-01-04T09:11:04.579Z,97.64
2018-01-04T09:12:04.560Z,98.03
2018-01-04T09:13:04.540Z,97.78
2018-01-04T09:14:04.524Z,97.74
2018-01-04T09:15:04.500Z,98.03
2018-01-04T09:16:04.476Z,97.55
2018-01-04T09:17:04.475Z,97.27
2018-01-04T09:18:04.434Z,97.17
2018-01-04T09:19:04.429Z,96.79
2018-01-04T09:20:04.394Z,97.55
2018-01-04T09:21:04.373Z,97.45
2018-01-04T09:22:04.450Z,97.36
2018-01-04T09:23:04.333Z,97.83
2018-01-04T09:24:04.314Z,97.69
2018-01-04T09:25:04.309Z,97.64
2018-01-04T09:26:04.283Z,97.83
2018-01-04T09:27:04.261Z,97.93
2018-01-04T09:28:04.232Z,97.83
2018-01-04T09:29:04.211Z,97.27
2018-01-04T09:30:04.190Z,97.55
2018-01-04T09:31:04.172Z,97.64
2018-01-04T09:32:04.163Z,97.17
2018-01-04T09:33:04.137Z,97.17
2018-01-04T09:34:04.117Z,97.27
2018-01-04T09:35:04.087Z,97.27
2018-01-04T09:36:04.070Z,97.45
2018-01-04T09:37:04.054Z,96.98
2018-01-04T09:38:04.028Z,97.45
2018-01-04T09:39:04.008Z,97.08
2018-01-04T09:40:03.986Z,97.27
2018-01-04T09:41:03.968Z,97.45
2018-01-04T09:42:03.955Z,97.45
2018-01-04T09:43:03.939Z,97.36
2018-01-04T09:44:03.908Z,96.98
2018-01-04T09:45:03.894Z,97.36
2018-01-04T09:46:03.868Z,96.98
2018-01-04T09:47:03.850Z,97.36
2018-01-04T09:48:03.825Z,97.64
2018-01-04T09:49:03.806Z,98.12
2018-01-04T09:50:03.785Z,97.64
2018-01-04T09:51:03.772Z,97.83
2018-01-04T09:52:03.875Z,97.27
2018-01-04T09:53:03.727Z,97.55
2018-01-04T09:54:03.718Z,97.83
2018-01-04T09:55:03.687Z,97.45
2018-01-04T09:56:03.674Z,97.36
2018-01-04T09:57:03.646Z,97.27
2018-01-04T09:58:03.636Z,97.45
2018-01-04T09:59:03.606Z,97.64
2018-01-04T10:00:03.586Z,97.74
2018-01-04T10:01:03.565Z,97.45
2018-01-04T10:02:03.549Z,97.64
2018-01-04T10:03:03.525Z,97.83
2018-01-04T10:04:03.506Z,98.12
2018-01-04T10:05:03.485Z,98.03
2018-01-04T10:06:03.466Z,97.83
2018-01-04T10:07:03.458Z,97.64
2018-01-04T10:08:03.430Z,98.12
2018-01-04T10:09:03.414Z,97.55
2018-01-04T10:10:03.387Z,97.64
2018-01-04T10:11:03.505Z,97.93
2018-01-04T10:12:03.344Z,98.03
2018-01-04T10:13:03.327Z,97.64
2018-01-04T10:14:03.456Z,97.64
2018-01-04T10:15:03.284Z,97.83
2018-01-04T10:16:03.271Z,97.64
2018-01-04T10:17:03.291Z,97.74
2018-01-04T10:18:03.231Z,98.03
2018-01-04T10:19:03.210Z,97.83
2018-01-04T10:20:03.183Z,97.64
2018-01-04T10:21:03.172Z,97.45
2018-01-04T10:22:03.149Z,97.27
2018-01-04T10:23:03.123Z,97.08
2018-01-04T10:24:03.107Z,97.17
2018-01-04T10:25:03.132Z,97.27
2018-01-04T10:26:03.066Z,97.83
2018-01-04T10:27:03.047Z,97.45
2018-01-04T10:28:03.027Z,97.83
2018-01-04T10:29:03.005Z,96.79
2018-01-04T10:30:02.987Z,97.36
2018-01-04T10:31:02.970Z,97.27
2018-01-04T10:32:02.949Z,97.27
2018-01-04T10:33:02.925Z,97.36
2018-01-04T10:34:02.909Z,97.17
2018-01-04T10:35:02.883Z,96.50
2018-01-04T10:36:02.865Z,96.50
2018-01-04T10:37:02.849Z,96.46
2018-01-04T10:38:02.827Z,96.22
2018-01-04T10:39:02.815Z,96.50
2018-01-04T10:40:02.788Z,96.98
2018-01-04T10:41:02.863Z,96.41
2018-01-04T10:42:02.765Z,96.31
2018-01-04T10:43:02.728Z,97.08
2018-01-04T10:44:02.721Z,96.60
2018-01-04T10:45:02.708Z,96.50
2018-01-04T10:46:02.669Z,96.60
2018-01-04T10:47:02.650Z,96.79
2018-01-04T10:48:02.630Z,96.46
2018-01-04T10:49:02.608Z,96.46
2018-01-04T10:50:02.590Z,96.50
2018-01-04T10:51:02.578Z,96.89
2018-01-04T10:52:02.551Z,96.84
2018-01-04T10:53:02.530Z,96.69
2018-01-04T10:54:02.511Z,97.45
2018-01-04T10:55:02.557Z,97.22
2018-01-04T10:56:02.475Z,96.89
2018-01-04T10:57:02.451Z,96.84
2018-01-04T10:58:02.442Z,96.26
2018-01-04T10:59:02.423Z,95.70
2018-01-04T11:00:02.396Z,96.36
2018-01-04T11:01:02.375Z,96.46
2018-01-04T11:02:02.357Z,96.17
2018-01-04T11:03:02.410Z,95.89
2018-01-04T11:04:02.317Z,96.08
2018-01-04T11:05:02.298Z,95.98
2018-01-04T11:06:02.393Z,95.79
2018-01-04T11:07:02.257Z,95.41
2018-01-04T11:08:02.236Z,95.22
2018-01-04T11:09:02.219Z,95.32
2018-01-04T11:10:02.200Z,94.93
2018-01-04T11:11:02.184Z,94.93
2018-01-04T11:12:02.172Z,95.03
2018-01-04T11:13:02.152Z,95.12
2018-01-04T11:14:02.166Z,95.03
2018-01-04T11:15:02.102Z,94.56
2018-01-04T11:16:02.087Z,95.12
2018-01-04T11:17:02.066Z,94.65
2018-01-04T11:18:02.045Z,95.03
2018-01-04T11:19:02.039Z,95.03
2018-01-04T11:20:02.007Z,95.41
2018-01-04T11:21:01.991Z,94.46
2018-01-04T11:22:01.971Z,94.37
2018-01-04T11:23:01.952Z,94.65
2018-01-04T11:24:01.971Z,94.46
2018-01-04T11:25:01.913Z,94.74
2018-01-04T11:26:01.897Z,94.65
2018-01-04T11:27:01.875Z,94.74
2018-01-04T11:28:01.859Z,94.27
2018-01-04T11:29:01.836Z,93.70
2018-01-04T11:30:01.842Z,94.84
2018-01-04T11:31:01.803Z,93.98
2018-01-04T11:32:01.780Z,94.84
2018-01-04T11:33:01.775Z,94.18
2018-01-04T11:34:01.750Z,94.18
2018-01-04T11:35:01.724Z,94.18
2018-01-04T11:36:01.724Z,94.27
2018-01-04T11:37:01.685Z,93.70
2018-01-04T11:38:01.680Z,94.37
2018-01-04T11:39:01.657Z,94.18
2018-01-04T11:40:01.630Z,94.27
2018-01-04T11:41:01.611Z,94.27
2018-01-04T11:42:01.594Z,94.46
2018-01-04T11:43:01.569Z,94.37
2018-01-04T11:44:01.556Z,94.08
2018-01-04T11:45:01.540Z,94.27
2018-01-04T11:46:01.525Z,94.27
2018-01-04T11:47:01.499Z,93.98
2018-01-04T11:48:01.491Z,94.27
2018-01-04T11:49:01.460Z,94.93
2018-01-04T11:50:01.440Z,94.65
2018-01-04T11:51:01.423Z,94.93
2018-01-04T11:52:01.414Z,94.08
2018-01-04T11:53:01.388Z,94.18
2018-01-04T11:54:01.362Z,94.93
2018-01-04T11:55:01.358Z,94.74
2018-01-04T11:56:01.335Z,94.46
2018-01-04T11:57:01.308Z,94.93
2018-01-04T11:58:01.291Z,94.65
2018-01-04T11:59:01.274Z,94.37
2018-01-04T12:00:01.259Z,94.46
2018-01-04T12:01:01.237Z,95.03
2018-01-04T12:02:01.217Z,94.84
2018-01-04T12:03:01.253Z,94.18
2018-01-04T12:04:01.197Z,94.27
2018-01-04T12:05:01.158Z,94.27
2018-01-04T12:06:01.142Z,93.79
2018-01-04T12:07:01.121Z,93.89
2018-01-04T12:08:01.099Z,94.37
2018-01-04T12:09:01.078Z,94.84
2018-01-04T12:10:01.060Z,94.93
2018-01-04T12:11:01.041Z,94.46
2018-01-04T12:12:01.025Z,94.65
2018-01-04T12:13:01.006Z,95.12
2018-01-04T12:14:00.984Z,94.84
2018-01-04T12:15:00.966Z,95.22
2018-01-04T12:16:00.948Z,94.93
2018-01-04T12:17:00.927Z,95.32
2018-01-04T12:18:00.917Z,96.08
2018-01-04T12:19:00.889Z,95.89
2018-01-04T12:20:00.869Z,96.08
2018-01-04T12:21:00.855Z,96.26
2018-01-04T12:22:00.992Z,96.94
2018-01-04T12:23:00.818Z,96.46
2018-01-04T12:24:00.797Z,96.08
2018-01-04T12:25:00.781Z,96.26
2018-01-04T12:26:00.756Z,96.26
2018-01-04T12:27:00.733Z,95.89
2018-01-04T12:28:00.718Z,96.26
2018-01-04T12:29:00.706Z,96.55
2018-01-04T12:30:00.678Z,95.89
2018-01-04T12:31:00.676Z,95.98
2018-01-04T12:32:00.642Z,95.51
2018-01-04T12:33:00.633Z,95.03
2018-01-04T12:34:00.604Z,95.32
2018-01-04T12:35:00.586Z,95.32
2018-01-04T12:36:00.567Z,95.32
2018-01-04T12:37:00.556Z,94.65
2018-01-04T12:38:00.524Z,94.74
2018-01-04T12:39:00.503Z,93.98
2018-01-04T12:40:00.495Z,94.65
2018-01-04T12:41:00.466Z,94.93
2018-01-04T12:42:00.451Z,95.22
2018-01-04T12:43:00.433Z,95.98
2018-01-04T12:44:00.418Z,96.17
2018-01-04T12:45:00.391Z,96.26
2018-01-04T12:46:00.373Z,95.89
2018-01-04T12:47:00.356Z,96.08
2018-01-04T12:48:00.333Z,96.08
2018-01-04T12:49:00.318Z,95.22
2018-01-04T12:50:00.300Z,95.89
2018-01-04T12:51:00.287Z,95.98
2018-01-04T12:52:00.409Z,95.22